createdAt,value
2023-10-25T00:01:44.531Z,8.17
2023-10-25T00:04:11.450Z,7.90
2023-10-25T00:06:38.244Z,8.15
2023-10-25T00:09:06.026Z,8.11
2023-10-25T00:11:32.777Z,7.93
2023-10-25T00:14:00.034Z,8.14
2023-10-25T00:16:26.693Z,8.23
2023-10-25T00:18:53.353Z,8.21
2023-10-25T00:21:19.996Z,8.40
2023-10-25T00:23:46.641Z,8.37
2023-10-25T00:26:13.268Z,8.25
2023-10-25T00:28:39.998Z,8.41
2023-10-25T00:31:06.870Z,8.71
2023-10-25T00:33:33.770Z,8.52
2023-10-25T00:36:00.452Z,8.52
2023-10-25T00:38:27.157Z,8.92
2023-10-25T00:40:53.778Z,8.25
2023-10-25T00:43:22.006Z,8.25
2023-10-25T00:46:08.326Z,8.68
2023-10-25T00:48:37.981Z,9.12
2023-10-25T00:51:04.834Z,9.11
2023-10-25T00:53:34.222Z,9.37
2023-10-25T00:56:02.830Z,9.08
2023-10-25T00:58:30.747Z,9.23
2023-10-25T01:00:59.076Z,9.05
2023-10-25T01:03:26.177Z,9.51
2023-10-25T01:05:53.502Z,9.29
2023-10-25T01:08:22.089Z,9.38
2023-10-25T01:10:53.645Z,8.94
2023-10-25T01:13:21.838Z,8.96
2023-10-25T01:15:49.209Z,9.44
2023-10-25T01:18:16.366Z,9.01
2023-10-25T01:20:44.657Z,8.88
2023-10-25T01:23:12.567Z,8.69
2023-10-25T01:25:40.260Z,9.41
2023-10-25T01:28:07.016Z,9.52
2023-10-25T01:30:33.872Z,9.15
2023-10-25T01:33:00.803Z,8.81
2023-10-25T01:35:27.970Z,8.38
2023-10-25T01:37:55.001Z,8.40
2023-10-25T01:40:22.071Z,8.37
2023-10-25T01:42:48.847Z,8.13
2023-10-25T01:45:15.554Z,8.13
2023-10-25T01:47:42.339Z,8.15
2023-10-25T01:50:09.540Z,7.75
2023-10-25T01:52:36.455Z,8.07
2023-10-25T01:55:03.326Z,7.79
2023-10-25T01:57:30.539Z,7.64
2023-10-25T01:59:57.235Z,7.68
2023-10-25T02:02:24.115Z,7.79
2023-10-25T02:04:50.803Z,7.63
2023-10-25T02:07:17.695Z,7.67
2023-10-25T02:09:44.746Z,7.19
2023-10-25T02:12:11.607Z,7.05
2023-10-25T02:14:38.397Z,7.07
2023-10-25T02:17:05.344Z,7.15
2023-10-25T02:19:32.273Z,6.82
2023-10-25T02:22:00.611Z,7.28
2023-10-25T02:24:27.660Z,6.96
2023-10-25T02:26:54.781Z,6.58
2023-10-25T02:29:21.512Z,6.62
2023-10-25T02:31:48.266Z,6.90
2023-10-25T02:34:15.123Z,6.69
2023-10-25T02:36:41.959Z,6.69
2023-10-25T02:39:10.111Z,6.43
2023-10-25T02:41:37.423Z,6.51
2023-10-25T02:44:04.159Z,6.57
2023-10-25T02:46:30.916Z,6.56
2023-10-25T02:48:57.675Z,6.63
2023-10-25T02:51:24.355Z,6.29
2023-10-25T02:53:53.851Z,6.22
2023-10-25T02:56:20.565Z,6.57
2023-10-25T02:58:47.266Z,6.57
2023-10-25T03:01:22.573Z,6.52
2023-10-25T03:03:50.258Z,6.38
2023-10-25T03:06:17.147Z,6.63
2023-10-25T03:08:44.143Z,6.72
2023-10-25T03:11:10.893Z,6.75
2023-10-25T03:13:38.509Z,6.50
2023-10-25T03:16:06.201Z,6.41
2023-10-25T03:18:34.258Z,6.22
2023-10-25T03:21:04.928Z,6.15
2023-10-25T03:23:32.706Z,6.12
2023-10-25T03:26:06.570Z,5.84
2023-10-25T03:28:34.159Z,5.70
2023-10-25T03:31:19.506Z,5.91
2023-10-25T03:33:46.451Z,6.03
2023-10-25T03:36:13.125Z,6.25
2023-10-25T03:38:40.026Z,6.28
2023-10-25T03:41:08.338Z,6.23
2023-10-25T03:43:36.589Z,6.46
2023-10-25T03:46:05.239Z,6.35
2023-10-25T03:48:33.461Z,6.25
2023-10-25T03:51:02.565Z,6.56
2023-10-25T03:53:29.184Z,6.66
2023-10-25T03:55:56.822Z,6.71
2023-10-25T03:58:25.807Z,6.52
2023-10-25T04:01:10.760Z,6.35
2023-10-25T04:03:39.248Z,5.87
2023-10-25T04:06:07.347Z,5.80
2023-10-25T04:08:34.002Z,6.06
2023-10-25T04:11:01.114Z,5.95
2023-10-25T04:13:28.024Z,6.40
2023-10-25T04:15:55.920Z,5.67
2023-10-25T04:18:23.626Z,5.44
2023-10-25T04:20:50.423Z,5.15
2023-10-25T04:23:17.323Z,4.74
2023-10-25T04:25:44.126Z,4.77
2023-10-25T04:28:11.414Z,5.34
2023-10-25T04:30:38.220Z,5.64
2023-10-25T04:33:04.981Z,5.73
2023-10-25T04:35:31.870Z,4.59
2023-10-25T04:37:58.565Z,3.75
2023-10-25T04:40:25.745Z,6.53
2023-10-25T04:42:54.953Z,7.21
2023-10-25T04:45:22.040Z,5.36
2023-10-25T04:47:50.518Z,4.91
2023-10-25T04:50:18.776Z,5.17
2023-10-25T04:52:45.391Z,5.98
2023-10-25T04:55:12.776Z,5.94
2023-10-25T04:57:39.822Z,6.50
2023-10-25T05:00:16.553Z,6.40
2023-10-25T05:02:43.151Z,7.70
2023-10-25T05:05:10.286Z,7.54
2023-10-25T05:07:41.011Z,7.12
2023-10-25T05:10:10.099Z,7.35
2023-10-25T05:12:43.045Z,7.01
2023-10-25T05:15:11.344Z,7.23
2023-10-25T05:17:42.540Z,6.69
2023-10-25T05:20:10.328Z,6.90
2023-10-25T05:22:42.861Z,6.89
2023-10-25T05:25:11.644Z,7.47
2023-10-25T05:27:39.012Z,6.90
2023-10-25T05:30:08.836Z,7.09
2023-10-25T05:32:37.375Z,6.68
2023-10-25T05:35:06.616Z,6.88
2023-10-25T05:37:33.950Z,6.67
2023-10-25T05:40:01.402Z,7.17
2023-10-25T05:42:28.691Z,6.85
2023-10-25T05:44:56.676Z,6.95
2023-10-25T05:47:26.339Z,6.66
2023-10-25T05:49:53.993Z,6.60
2023-10-25T05:52:24.412Z,6.53
2023-10-25T05:54:51.442Z,7.17
2023-10-25T05:57:18.350Z,6.92
2023-10-25T05:59:45.379Z,7.43
2023-10-25T06:02:23.949Z,7.29
2023-10-25T06:04:51.388Z,7.29
2023-10-25T06:07:18.415Z,6.95
2023-10-25T06:09:45.486Z,6.96
2023-10-25T06:12:12.628Z,7.09
2023-10-25T06:14:39.283Z,7.10
2023-10-25T06:17:05.990Z,7.23
2023-10-25T06:19:32.702Z,7.03
2023-10-25T06:21:59.381Z,7.10
2023-10-25T06:24:26.119Z,6.91
2023-10-25T06:26:52.746Z,7.00
2023-10-25T06:29:19.411Z,7.42
2023-10-25T06:31:52.794Z,7.11
2023-10-25T06:34:22.609Z,7.51
2023-10-25T06:36:49.859Z,7.68
2023-10-25T06:39:16.950Z,7.42
2023-10-25T06:41:44.662Z,7.44
2023-10-25T06:44:11.970Z,7.33
2023-10-25T06:46:39.306Z,7.78
2023-10-25T06:49:06.742Z,8.15
2023-10-25T06:51:33.865Z,7.60
2023-10-25T06:54:00.861Z,7.63
2023-10-25T06:56:27.745Z,7.96
2023-10-25T06:58:54.762Z,7.74
2023-10-25T07:01:26.607Z,7.83
2023-10-25T07:04:00.192Z,7.54
2023-10-25T07:06:27.226Z,7.62
2023-10-25T07:08:54.132Z,7.49
2023-10-25T07:11:23.529Z,7.60
2023-10-25T07:13:51.748Z,7.46
2023-10-25T07:16:18.823Z,7.76
2023-10-25T07:18:46.958Z,7.16
2023-10-25T07:21:13.721Z,7.32
2023-10-25T07:23:40.366Z,7.61
2023-10-25T07:26:07.947Z,7.24
2023-10-25T07:28:34.769Z,7.46
2023-10-25T07:31:01.426Z,7.28
2023-10-25T07:33:29.739Z,7.07
2023-10-25T07:35:56.627Z,6.73
2023-10-25T07:38:23.316Z,6.77
2023-10-25T07:40:50.802Z,6.55
2023-10-25T07:43:17.702Z,6.39
2023-10-25T07:45:44.618Z,6.31
2023-10-25T07:48:11.412Z,6.17
2023-10-25T07:50:38.843Z,6.13
2023-10-25T07:53:05.524Z,5.99
2023-10-25T08:00:40.024Z,6.06
2023-10-25T08:03:06.769Z,5.92
2023-10-25T08:05:33.691Z,6.18
2023-10-25T08:08:00.469Z,5.77
2023-10-25T08:10:27.491Z,5.75
2023-10-25T08:12:54.157Z,5.95
2023-10-25T08:15:20.803Z,5.56
2023-10-25T08:17:47.520Z,5.70
2023-10-25T08:20:14.384Z,5.38
2023-10-25T08:22:41.159Z,5.69
2023-10-25T08:25:10.171Z,5.76
2023-10-25T08:27:38.022Z,5.46
2023-10-25T08:30:05.312Z,5.43
2023-10-25T08:32:32.439Z,5.59
2023-10-25T08:34:59.166Z,5.82
2023-10-25T08:37:25.811Z,5.35
2023-10-25T08:39:52.515Z,5.46
2023-10-25T08:42:20.132Z,5.64
2023-10-25T08:44:47.402Z,5.28
2023-10-25T08:47:14.565Z,5.23
2023-10-25T08:49:41.435Z,5.18
2023-10-25T08:52:08.439Z,5.39
2023-10-25T08:54:37.606Z,5.49
2023-10-25T08:57:06.087Z,5.37
2023-10-25T08:59:52.659Z,5.13
2023-10-25T09:02:19.634Z,5.13
2023-10-25T09:05:03.901Z,4.94
2023-10-25T09:07:33.570Z,5.37
2023-10-25T09:10:00.781Z,5.37
2023-10-25T09:12:27.785Z,5.25
2023-10-25T09:14:54.527Z,5.50
2023-10-25T09:17:21.590Z,4.86
2023-10-25T09:19:51.949Z,4.92
2023-10-25T09:22:32.189Z,5.02
2023-10-25T09:25:01.844Z,5.13
2023-10-25T09:27:29.873Z,5.02
2023-10-25T09:32:46.632Z,5.28
2023-10-25T09:35:13.600Z,5.59
2023-10-25T09:37:40.596Z,5.28
2023-10-25T09:40:07.579Z,5.56
2023-10-25T09:42:40.509Z,5.24
2023-10-25T09:45:13.172Z,5.57
2023-10-25T09:47:50.760Z,5.60
2023-10-25T09:50:32.488Z,5.67
2023-10-25T09:53:14.458Z,5.31
2023-10-25T09:55:55.765Z,5.71
2023-10-25T09:58:26.621Z,5.59
2023-10-25T10:00:56.833Z,5.59
2023-10-25T10:03:52.550Z,5.84
2023-10-25T10:06:38.359Z,5.69
2023-10-25T10:09:41.291Z,6.41
2023-10-25T10:12:09.226Z,7.20
2023-10-25T10:14:38.661Z,6.58
2023-10-25T10:17:15.525Z,6.05
2023-10-25T10:19:44.317Z,6.34
2023-10-25T10:22:16.360Z,6.39
2023-10-25T10:24:43.151Z,6.02
2023-10-25T10:27:18.833Z,6.34
2023-10-25T10:29:48.197Z,6.46
2023-10-25T10:32:15.684Z,6.29
2023-10-25T10:34:58.581Z,6.77
2023-10-25T10:37:30.730Z,6.65
2023-10-25T10:39:58.898Z,6.74
2023-10-25T10:42:30.500Z,6.56
2023-10-25T10:44:58.573Z,6.76
2023-10-25T10:47:44.871Z,6.78
2023-10-25T10:50:21.435Z,6.72
2023-10-25T10:52:51.943Z,7.12
2023-10-25T10:55:21.035Z,7.04
2023-10-25T10:58:07.050Z,7.35
2023-10-25T11:00:35.019Z,7.16
2023-10-25T11:03:06.478Z,7.66
2023-10-25T11:05:37.781Z,7.41
2023-10-25T11:08:14.525Z,7.39
2023-10-25T11:10:41.380Z,7.24
2023-10-25T11:13:09.592Z,7.70
2023-10-25T11:15:36.460Z,7.41
2023-10-25T11:18:07.633Z,7.44
2023-10-25T11:20:34.388Z,7.15
2023-10-25T11:23:04.007Z,7.03
2023-10-25T11:25:31.168Z,7.09
2023-10-25T11:27:58.275Z,6.85
2023-10-25T11:30:26.088Z,6.89
2023-10-25T11:32:53.705Z,6.68
2023-10-25T11:35:22.677Z,6.98
2023-10-25T11:37:52.361Z,6.75
2023-10-25T11:40:20.202Z,6.95
2023-10-25T11:42:47.313Z,6.96
2023-10-25T11:45:18.883Z,6.77
2023-10-25T11:47:49.265Z,6.69
2023-10-25T11:50:16.569Z,6.82
2023-10-25T11:52:43.241Z,6.84
2023-10-25T11:55:11.432Z,6.64
2023-10-25T11:57:40.631Z,6.84
2023-10-25T12:00:10.318Z,6.36
2023-10-25T12:02:38.042Z,6.47
2023-10-25T12:05:05.053Z,6.21
2023-10-25T12:07:33.064Z,6.06
2023-10-25T12:09:59.894Z,6.19
2023-10-25T12:12:26.557Z,5.94
2023-10-25T12:14:53.221Z,5.82
2023-10-25T12:17:19.934Z,5.87
2023-10-25T12:19:48.433Z,6.14
2023-10-25T12:22:15.138Z,6.34
2023-10-25T12:24:44.253Z,6.37
2023-10-25T12:27:12.600Z,6.32
2023-10-25T12:29:39.969Z,6.19
2023-10-25T12:32:08.025Z,5.71
2023-10-25T12:34:34.666Z,5.40
2023-10-25T12:37:01.669Z,5.84
2023-10-25T12:39:28.399Z,5.70
2023-10-25T12:41:55.154Z,6.04
2023-10-25T12:44:22.068Z,5.74
2023-10-25T12:46:48.744Z,5.48
2023-10-25T12:49:18.199Z,5.27
2023-10-25T12:51:46.117Z,5.39
2023-10-25T12:54:12.834Z,5.30
2023-10-25T12:56:39.534Z,5.76
2023-10-25T12:59:06.197Z,5.67
2023-10-25T13:01:32.973Z,5.40
2023-10-25T13:04:00.170Z,5.73
2023-10-25T13:06:28.237Z,5.77
2023-10-25T13:08:56.596Z,6.59
2023-10-25T13:11:23.440Z,6.26
2023-10-25T13:13:50.098Z,5.37
2023-10-25T13:16:17.131Z,5.71
2023-10-25T13:18:44.017Z,5.92
2023-10-25T13:21:10.758Z,5.88
2023-10-25T13:23:37.473Z,5.81
2023-10-25T13:26:04.303Z,5.49
2023-10-25T13:28:30.990Z,5.73
2023-10-25T13:30:57.638Z,5.72
2023-10-25T13:33:27.459Z,5.62
2023-10-25T13:35:54.590Z,5.70
2023-10-25T13:38:21.249Z,5.57
2023-10-25T13:40:48.795Z,5.48
2023-10-25T13:43:17.019Z,5.72
2023-10-25T13:45:45.579Z,5.79
2023-10-25T13:48:12.968Z,5.75
2023-10-25T13:50:39.862Z,5.58
2023-10-25T13:53:06.549Z,5.57
2023-10-25T13:55:38.388Z,5.65
2023-10-25T13:58:05.098Z,5.40
2023-10-25T14:00:31.773Z,5.43
2023-10-25T14:02:58.534Z,5.41
2023-10-25T14:05:25.338Z,5.54
2023-10-25T14:07:52.011Z,5.52
2023-10-25T14:10:18.673Z,5.36
2023-10-25T14:12:45.308Z,5.78
2023-10-25T14:15:12.002Z,5.14
2023-10-25T14:17:39.525Z,4.99
2023-10-25T14:20:07.107Z,4.73
2023-10-25T14:22:33.781Z,4.48
2023-10-25T14:25:00.446Z,4.73
2023-10-25T14:27:27.073Z,4.69
2023-10-25T14:29:53.881Z,4.98
2023-10-25T14:32:20.576Z,5.06
2023-10-25T14:34:47.202Z,4.87
2023-10-25T14:37:13.849Z,4.75
2023-10-25T14:39:40.757Z,4.88
2023-10-25T14:42:09.035Z,5.27
2023-10-25T14:44:35.685Z,4.96
2023-10-25T14:47:04.466Z,4.68
2023-10-25T14:49:31.697Z,4.93
2023-10-25T14:51:58.340Z,4.99
2023-10-25T14:54:27.044Z,5.22
2023-10-25T14:56:55.697Z,5.24
2023-10-25T14:59:22.395Z,5.41
2023-10-25T15:01:49.536Z,5.71
2023-10-25T15:04:16.946Z,5.44
2023-10-25T15:06:43.801Z,5.65
2023-10-25T15:09:10.561Z,5.26
2023-10-25T15:11:37.376Z,5.31
2023-10-25T15:14:04.123Z,5.44
2023-10-25T15:16:30.819Z,5.24
2023-10-25T15:18:57.503Z,5.29
2023-10-25T15:21:24.182Z,5.50
2023-10-25T15:23:50.867Z,5.65
2023-10-25T15:26:17.628Z,5.72
2023-10-25T15:28:44.517Z,6.06
2023-10-25T15:31:12.676Z,6.11
2023-10-25T15:33:41.050Z,5.80
2023-10-25T15:36:08.417Z,5.93
2023-10-25T15:38:38.600Z,5.61
2023-10-25T15:41:18.638Z,5.76
2023-10-25T15:43:45.397Z,6.05
2023-10-25T15:46:12.173Z,6.31
2023-10-25T15:48:47.377Z,6.94
2023-10-25T15:51:15.044Z,6.77
2023-10-25T15:53:45.554Z,6.90
2023-10-25T15:56:14.673Z,6.89
2023-10-25T15:58:43.198Z,6.85
2023-10-25T16:01:20.223Z,7.21
2023-10-25T16:03:55.614Z,7.97
2023-10-25T16:06:22.690Z,7.47
2023-10-25T16:08:49.381Z,7.62
2023-10-25T16:11:16.452Z,7.54
2023-10-25T16:13:43.196Z,7.49
2023-10-25T16:16:10.790Z,7.67
2023-10-25T16:18:38.189Z,7.33
2023-10-25T16:21:06.503Z,7.01
2023-10-25T16:23:37.100Z,7.17
2023-10-25T16:26:06.917Z,7.66
2023-10-25T16:28:34.295Z,7.94
2023-10-25T16:31:04.837Z,8.03
2023-10-25T16:33:33.187Z,8.32
2023-10-25T16:36:04.436Z,7.89
2023-10-25T16:38:31.247Z,8.26
2023-10-25T16:41:02.474Z,8.30
2023-10-25T16:43:33.602Z,7.79
2023-10-25T16:46:13.805Z,7.16
2023-10-25T16:48:43.054Z,7.49
2023-10-25T16:51:10.878Z,7.27
2023-10-25T16:53:39.183Z,7.22
2023-10-25T16:56:07.387Z,7.68
2023-10-25T16:58:35.128Z,7.80
2023-10-25T17:01:02.207Z,8.02
2023-10-25T17:03:30.270Z,7.92
2023-10-25T17:05:58.316Z,8.23
2023-10-25T17:08:26.605Z,9.08
2023-10-25T17:10:55.180Z,8.40
2023-10-25T17:13:23.146Z,8.38
2023-10-25T17:15:49.875Z,8.29
2023-10-25T17:18:16.674Z,8.21
2023-10-25T17:20:48.079Z,8.29
2023-10-25T17:23:16.499Z,8.19
2023-10-25T17:25:43.136Z,8.17
2023-10-25T17:28:32.872Z,8.15
2023-10-25T17:31:01.169Z,8.23
2023-10-25T17:33:29.314Z,7.95
2023-10-25T17:35:56.153Z,8.28
2023-10-25T17:38:22.890Z,8.05
2023-10-25T17:40:51.181Z,7.89
2023-10-25T17:43:20.988Z,7.77
2023-10-25T17:46:09.737Z,7.87
2023-10-25T17:48:37.736Z,7.96
2023-10-25T17:51:06.555Z,8.22
2023-10-25T17:53:33.297Z,8.73
2023-10-25T17:55:59.970Z,8.55
2023-10-25T17:58:27.031Z,9.13
2023-10-25T18:00:54.402Z,9.33
2023-10-25T18:03:21.231Z,9.05
2023-10-25T18:05:48.137Z,8.77
2023-10-25T18:08:20.530Z,8.71
2023-10-25T18:10:47.159Z,9.39
2023-10-25T18:13:14.658Z,9.30
2023-10-25T18:15:41.642Z,9.30
2023-10-25T18:18:09.998Z,9.10
2023-10-25T18:20:36.975Z,9.44
2023-10-25T18:23:03.818Z,9.77
2023-10-25T18:25:30.532Z,9.94
2023-10-25T18:28:02.077Z,10.20
2023-10-25T18:31:59.605Z,10.70
2023-10-25T18:33:19.951Z,11.25
2023-10-25T18:35:48.885Z,11.41
2023-10-25T18:38:16.611Z,11.21
2023-10-25T18:40:57.990Z,11.38
2023-10-25T18:43:26.358Z,11.10
2023-10-25T18:45:54.842Z,11.46
2023-10-25T18:48:22.011Z,12.02
2023-10-25T18:50:48.759Z,12.04
2023-10-25T18:53:15.456Z,12.06
2023-10-25T18:55:43.598Z,11.81
2023-10-25T18:58:12.781Z,11.91
2023-10-25T19:00:39.408Z,11.68
2023-10-25T19:03:06.231Z,12.67
2023-10-25T19:06:29.862Z,12.49
2023-10-25T19:08:26.864Z,12.19
2023-10-25T19:10:54.796Z,12.59
2023-10-25T19:13:22.212Z,12.16
2023-10-25T19:15:48.908Z,12.16
2023-10-25T19:18:18.026Z,12.40
2023-10-25T19:20:44.857Z,12.53
2023-10-25T19:23:11.658Z,12.76
2023-10-25T19:25:38.401Z,13.14
2023-10-25T19:28:05.226Z,13.27
2023-10-25T19:30:33.165Z,13.42
2023-10-25T19:33:00.415Z,13.57
2023-10-25T19:35:27.158Z,14.35
2023-10-25T19:37:55.489Z,14.72
2023-10-25T19:40:22.229Z,15.01
2023-10-25T19:42:48.911Z,15.18
2023-10-25T19:45:15.741Z,15.19
2023-10-25T19:47:42.728Z,14.95
2023-10-25T19:50:14.835Z,15.15
2023-10-25T19:52:41.526Z,15.22
2023-10-25T19:55:08.573Z,15.20
2023-10-25T19:57:35.210Z,15.33
2023-10-25T20:00:01.934Z,15.57
2023-10-25T20:02:30.671Z,15.37
2023-10-25T20:04:57.749Z,15.67
2023-10-25T20:07:24.469Z,15.62
2023-10-25T20:09:51.175Z,15.35
2023-10-25T20:12:17.881Z,15.03
2023-10-25T20:14:44.683Z,15.27
2023-10-25T20:17:11.462Z,15.40
2023-10-25T20:19:38.083Z,15.40
2023-10-25T20:22:04.747Z,16.21
2023-10-25T20:24:32.690Z,15.67
2023-10-25T20:26:59.490Z,16.26
2023-10-25T20:29:26.217Z,16.18
2023-10-25T20:31:52.908Z,15.80
2023-10-25T20:34:19.591Z,15.99
2023-10-25T20:36:46.219Z,16.07
2023-10-25T20:39:12.974Z,16.03
2023-10-25T20:41:39.811Z,15.38
2023-10-25T20:44:06.493Z,15.06
2023-10-25T20:46:43.752Z,14.97
2023-10-25T20:49:11.554Z,15.21
2023-10-25T20:51:38.430Z,15.02
2023-10-25T20:54:05.412Z,14.35
2023-10-25T20:56:32.167Z,14.36
2023-10-25T20:58:58.853Z,14.65
2023-10-25T21:01:25.542Z,14.38
2023-10-25T21:03:52.359Z,14.25
2023-10-25T21:06:19.126Z,14.53
2023-10-25T21:08:45.920Z,13.99
2023-10-25T21:11:12.872Z,14.32
2023-10-25T21:13:39.637Z,14.00
2023-10-25T21:16:15.468Z,13.52
2023-10-25T21:18:42.178Z,14.19
2023-10-25T21:21:09.266Z,13.55
2023-10-25T21:23:35.931Z,14.03
2023-10-25T21:26:06.753Z,14.32
2023-10-25T21:28:33.573Z,14.58
2023-10-25T21:31:00.245Z,14.18
2023-10-25T21:33:27.037Z,14.33
2023-10-25T21:35:53.804Z,14.57
2023-10-25T21:38:20.431Z,14.43
2023-10-25T21:40:47.770Z,14.12
2023-10-25T21:43:14.417Z,14.76
2023-10-25T21:45:41.066Z,14.30
2023-10-25T21:48:07.888Z,14.14
2023-10-25T21:50:34.840Z,14.27
2023-10-25T21:53:01.849Z,14.57
2023-10-25T21:55:29.433Z,14.87
2023-10-25T21:58:45.864Z,14.83
2023-10-25T22:00:45.349Z,14.49
2023-10-25T22:03:12.228Z,14.56
2023-10-25T22:05:38.970Z,14.73
2023-10-25T22:08:05.675Z,14.58
2023-10-25T22:10:32.426Z,14.48
2023-10-25T22:12:59.967Z,14.73
2023-10-25T22:15:26.864Z,15.13
2023-10-25T22:17:53.670Z,15.39
2023-10-25T22:20:20.343Z,16.44
2023-10-25T22:22:47.077Z,16.63
2023-10-25T22:25:13.711Z,15.29
2023-10-25T22:27:40.377Z,15.26
2023-10-25T22:30:07.802Z,15.54
2023-10-25T22:32:34.573Z,15.50
2023-10-25T22:35:01.281Z,15.67
2023-10-25T22:37:27.938Z,15.63
2023-10-25T22:39:54.587Z,16.07
2023-10-25T22:42:21.427Z,16.01
2023-10-25T22:44:48.085Z,15.66
2023-10-25T22:47:15.196Z,15.77
2023-10-25T22:49:41.812Z,15.74
2023-10-25T22:52:08.727Z,15.79
2023-10-25T22:54:35.475Z,16.20
2023-10-25T22:57:07.263Z,16.37
2023-10-25T22:59:36.847Z,15.64
2023-10-25T23:02:04.865Z,15.79
2023-10-25T23:04:33.156Z,16.13
2023-10-25T23:07:00.530Z,16.17
2023-10-25T23:09:27.208Z,16.40
2023-10-25T23:11:54.044Z,16.86
2023-10-25T23:14:20.772Z,16.63
2023-10-25T23:16:47.412Z,16.78
2023-10-25T23:19:14.177Z,17.40
2023-10-25T23:21:40.965Z,17.19
2023-10-25T23:24:07.927Z,17.31
2023-10-25T23:26:37.209Z,17.40
2023-10-25T23:29:03.995Z,17.27
2023-10-25T23:31:30.811Z,16.67
2023-10-25T23:33:57.657Z,17.24
2023-10-25T23:36:24.597Z,17.58
2023-10-25T23:38:51.382Z,17.33
2023-10-25T23:41:18.009Z,17.55
2023-10-25T23:43:44.875Z,17.77
2023-10-25T23:46:11.512Z,17.46
2023-10-25T23:48:38.270Z,17.44
2023-10-25T23:51:05.160Z,17.54
2023-10-25T23:53:31.844Z,17.31
2023-10-25T23:56:36.416Z,17.11
2023-10-25T23:58:45.134Z,17.08
